sensor_id;sensor_type;location;lat;lon;timestamp;P1;durP1;ratioP1;P2;durP2;ratioP2
39044;SDS011;52192;52.002;5.956;2022-12-18T00:00:42;13.10;;;8.70;;
39044;SDS011;52192;52.002;5.956;2022-12-18T00:03:09;13.13;;;8.18;;
39044;SDS011;52192;52.002;5.956;2022-12-18T00:05:35;15.48;;;8.98;;
39044;SDS011;52192;52.002;5.956;2022-12-18T00:08:01;11.38;;;7.85;;
39044;SDS011;52192;52.002;5.956;2022-12-18T00:10:28;15.65;;;8.10;;
39044;SDS011;52192;52.002;5.956;2022-12-18T00:12:53;15.52;;;7.85;;
39044;SDS011;52192;52.002;5.956;2022-12-18T00:15:19;12.85;;;8.23;;
39044;SDS011;52192;52.002;5.956;2022-12-18T00:17:45;15.48;;;8.25;;
39044;SDS011;52192;52.002;5.956;2022-12-18T00:20:11;16.05;;;9.02;;
39044;SDS011;52192;52.002;5.956;2022-12-18T00:22:36;17.55;;;8.70;;
39044;SDS011;52192;52.002;5.956;2022-12-18T00:25:02;13.60;;;7.93;;
39044;SDS011;52192;52.002;5.956;2022-12-18T00:27:28;11.88;;;7.88;;
39044;SDS011;52192;52.002;5.956;2022-12-18T00:29:54;13.40;;;8.23;;
39044;SDS011;52192;52.002;5.956;2022-12-18T00:32:19;10.93;;;6.80;;
39044;SDS011;52192;52.002;5.956;2022-12-18T00:34:45;14.30;;;7.38;;
39044;SDS011;52192;52.002;5.956;2022-12-18T00:37:11;12.27;;;7.78;;
39044;SDS011;52192;52.002;5.956;2022-12-18T00:39:36;16.48;;;9.73;;
39044;SDS011;52192;52.002;5.956;2022-12-18T00:42:02;11.80;;;7.80;;
39044;SDS011;52192;52.002;5.956;2022-12-18T00:44:46;13.73;;;7.25;;
39044;SDS011;52192;52.002;5.956;2022-12-18T00:47:11;13.38;;;7.97;;
39044;SDS011;52192;52.002;5.956;2022-12-18T00:49:37;14.85;;;7.63;;
39044;SDS011;52192;52.002;5.956;2022-12-18T00:52:03;14.70;;;7.40;;
39044;SDS011;52192;52.002;5.956;2022-12-18T00:54:29;13.50;;;8.38;;
39044;SDS011;52192;52.002;5.956;2022-12-18T00:56:55;12.00;;;7.32;;
39044;SDS011;52192;52.002;5.956;2022-12-18T00:59:20;17.25;;;7.82;;
39044;SDS011;52192;52.002;5.956;2022-12-18T01:01:46;12.82;;;7.22;;
39044;SDS011;52192;52.002;5.956;2022-12-18T01:04:12;16.10;;;7.45;;
39044;SDS011;52192;52.002;5.956;2022-12-18T01:06:38;12.63;;;7.63;;
39044;SDS011;52192;52.002;5.956;2022-12-18T01:09:04;11.90;;;7.68;;
39044;SDS011;52192;52.002;5.956;2022-12-18T01:11:29;13.15;;;8.02;;
39044;SDS011;52192;52.002;5.956;2022-12-18T01:13:56;14.90;;;7.68;;
39044;SDS011;52192;52.002;5.956;2022-12-18T01:16:21;13.77;;;6.78;;
39044;SDS011;52192;52.002;5.956;2022-12-18T01:18:49;13.15;;;6.70;;
39044;SDS011;52192;52.002;5.956;2022-12-18T01:21:16;14.18;;;7.53;;
39044;SDS011;52192;52.002;5.956;2022-12-18T01:23:45;13.27;;;7.70;;
39044;SDS011;52192;52.002;5.956;2022-12-18T01:26:12;13.40;;;7.43;;
39044;SDS011;52192;52.002;5.956;2022-12-18T01:28:39;11.38;;;6.30;;
39044;SDS011;52192;52.002;5.956;2022-12-18T01:31:13;16.88;;;7.53;;
39044;SDS011;52192;52.002;5.956;2022-12-18T01:33:40;14.55;;;7.72;;
39044;SDS011;52192;52.002;5.956;2022-12-18T01:36:07;18.70;;;8.55;;
39044;SDS011;52192;52.002;5.956;2022-12-18T01:38:33;9.20;;;7.05;;
39044;SDS011;52192;52.002;5.956;2022-12-18T01:40:59;12.43;;;6.68;;
39044;SDS011;52192;52.002;5.956;2022-12-18T01:43:41;12.15;;;7.03;;
39044;SDS011;52192;52.002;5.956;2022-12-18T01:46:12;12.07;;;6.22;;
39044;SDS011;52192;52.002;5.956;2022-12-18T01:48:39;13.45;;;6.38;;
39044;SDS011;52192;52.002;5.956;2022-12-18T01:51:07;9.90;;;7.78;;
39044;SDS011;52192;52.002;5.956;2022-12-18T01:53:34;12.98;;;6.68;;
39044;SDS011;52192;52.002;5.956;2022-12-18T01:56:02;16.13;;;7.32;;
39044;SDS011;52192;52.002;5.956;2022-12-18T01:58:52;8.80;;;5.80;;
39044;SDS011;52192;52.002;5.956;2022-12-18T02:01:19;9.88;;;6.53;;
39044;SDS011;52192;52.002;5.956;2022-12-18T02:03:47;11.25;;;6.82;;
39044;SDS011;52192;52.002;5.956;2022-12-18T02:06:15;12.65;;;5.90;;
39044;SDS011;52192;52.002;5.956;2022-12-18T02:08:57;8.82;;;5.90;;
39044;SDS011;52192;52.002;5.956;2022-12-18T02:11:33;7.63;;;5.18;;
39044;SDS011;52192;52.002;5.956;2022-12-18T02:17:08;12.65;;;7.32;;
39044;SDS011;52192;52.002;5.956;2022-12-18T02:19:44;17.40;;;7.43;;
39044;SDS011;52192;52.002;5.956;2022-12-18T02:25:16;12.05;;;6.43;;
39044;SDS011;52192;52.002;5.956;2022-12-18T02:28:03;9.63;;;5.93;;
39044;SDS011;52192;52.002;5.956;2022-12-18T02:30:32;5.57;;;4.93;;
39044;SDS011;52192;52.002;5.956;2022-12-18T02:33:00;9.50;;;5.60;;
39044;SDS011;52192;52.002;5.956;2022-12-18T02:35:29;10.13;;;6.10;;
39044;SDS011;52192;52.002;5.956;2022-12-18T02:37:56;13.50;;;6.15;;
39044;SDS011;52192;52.002;5.956;2022-12-18T02:40:23;12.55;;;6.75;;
39044;SDS011;52192;52.002;5.956;2022-12-18T02:42:51;16.25;;;5.28;;
39044;SDS011;52192;52.002;5.956;2022-12-18T02:45:16;10.65;;;6.30;;
39044;SDS011;52192;52.002;5.956;2022-12-18T02:47:43;9.50;;;6.03;;
39044;SDS011;52192;52.002;5.956;2022-12-18T03:01:01;9.80;;;5.82;;
39044;SDS011;52192;52.002;5.956;2022-12-18T03:03:51;11.75;;;5.57;;
39044;SDS011;52192;52.002;5.956;2022-12-18T03:06:30;11.30;;;5.93;;
39044;SDS011;52192;52.002;5.956;2022-12-18T03:09:09;9.20;;;6.55;;
39044;SDS011;52192;52.002;5.956;2022-12-18T03:11:40;11.40;;;6.88;;
39044;SDS011;52192;52.002;5.956;2022-12-18T03:14:27;14.75;;;6.15;;
39044;SDS011;52192;52.002;5.956;2022-12-18T03:16:57;6.65;;;4.72;;
39044;SDS011;52192;52.002;5.956;2022-12-18T03:19:27;7.82;;;5.43;;
39044;SDS011;52192;52.002;5.956;2022-12-18T03:21:55;10.82;;;5.43;;
39044;SDS011;52192;52.002;5.956;2022-12-18T03:24:22;10.38;;;4.20;;
39044;SDS011;52192;52.002;5.956;2022-12-18T03:26:50;7.90;;;4.60;;
39044;SDS011;52192;52.002;5.956;2022-12-18T03:30:20;6.05;;;4.53;;
39044;SDS011;52192;52.002;5.956;2022-12-18T03:32:29;7.82;;;4.88;;
39044;SDS011;52192;52.002;5.956;2022-12-18T03:34:58;7.15;;;4.18;;
39044;SDS011;52192;52.002;5.956;2022-12-18T03:37:27;10.57;;;4.43;;
39044;SDS011;52192;52.002;5.956;2022-12-18T03:39:53;8.07;;;4.50;;
39044;SDS011;52192;52.002;5.956;2022-12-18T03:42:37;8.63;;;4.90;;
39044;SDS011;52192;52.002;5.956;2022-12-18T03:45:20;5.90;;;3.85;;
39044;SDS011;52192;52.002;5.956;2022-12-18T03:50:45;7.32;;;4.20;;
39044;SDS011;52192;52.002;5.956;2022-12-18T03:53:17;8.00;;;4.15;;
39044;SDS011;52192;52.002;5.956;2022-12-18T03:55:57;7.13;;;4.75;;
39044;SDS011;52192;52.002;5.956;2022-12-18T03:58:25;5.28;;;4.10;;
39044;SDS011;52192;52.002;5.956;2022-12-18T04:00:53;4.88;;;3.78;;
39044;SDS011;52192;52.002;5.956;2022-12-18T04:03:21;6.80;;;3.63;;
39044;SDS011;52192;52.002;5.956;2022-12-18T04:05:49;11.50;;;5.25;;
39044;SDS011;52192;52.002;5.956;2022-12-18T04:08:17;7.75;;;3.25;;
39044;SDS011;52192;52.002;5.956;2022-12-18T04:10:44;9.30;;;3.83;;
39044;SDS011;52192;52.002;5.956;2022-12-18T04:13:10;9.18;;;4.03;;
39044;SDS011;52192;52.002;5.956;2022-12-18T04:15:36;7.00;;;4.32;;
39044;SDS011;52192;52.002;5.956;2022-12-18T04:18:02;6.75;;;3.40;;
39044;SDS011;52192;52.002;5.956;2022-12-18T04:20:28;9.02;;;4.50;;
39044;SDS011;52192;52.002;5.956;2022-12-18T04:22:55;6.53;;;3.95;;
39044;SDS011;52192;52.002;5.956;2022-12-18T04:25:20;4.80;;;4.10;;
39044;SDS011;52192;52.002;5.956;2022-12-18T04:27:46;6.60;;;4.18;;
39044;SDS011;52192;52.002;5.956;2022-12-18T04:30:12;3.75;;;3.20;;
39044;SDS011;52192;52.002;5.956;2022-12-18T04:32:37;7.88;;;3.25;;
39044;SDS011;52192;52.002;5.956;2022-12-18T04:35:03;8.63;;;4.70;;
39044;SDS011;52192;52.002;5.956;2022-12-18T04:37:31;8.35;;;4.07;;
39044;SDS011;52192;52.002;5.956;2022-12-18T04:39:57;9.02;;;4.07;;
39044;SDS011;52192;52.002;5.956;2022-12-18T04:42:23;7.18;;;3.65;;
39044;SDS011;52192;52.002;5.956;2022-12-18T04:44:48;6.13;;;3.30;;
39044;SDS011;52192;52.002;5.956;2022-12-18T04:47:14;4.35;;;2.58;;
39044;SDS011;52192;52.002;5.956;2022-12-18T04:49:40;8.25;;;3.25;;
39044;SDS011;52192;52.002;5.956;2022-12-18T04:52:06;9.82;;;3.38;;
39044;SDS011;52192;52.002;5.956;2022-12-18T04:54:31;7.95;;;2.80;;
39044;SDS011;52192;52.002;5.956;2022-12-18T04:56:57;6.82;;;3.55;;
39044;SDS011;52192;52.002;5.956;2022-12-18T04:59:22;6.22;;;3.20;;
39044;SDS011;52192;52.002;5.956;2022-12-18T05:01:48;6.57;;;3.03;;
39044;SDS011;52192;52.002;5.956;2022-12-18T05:04:14;3.90;;;2.75;;
39044;SDS011;52192;52.002;5.956;2022-12-18T05:06:39;3.90;;;2.55;;
39044;SDS011;52192;52.002;5.956;2022-12-18T05:09:05;11.95;;;3.80;;
39044;SDS011;52192;52.002;5.956;2022-12-18T05:11:31;4.88;;;2.97;;
39044;SDS011;52192;52.002;5.956;2022-12-18T05:13:56;4.70;;;3.20;;
39044;SDS011;52192;52.002;5.956;2022-12-18T05:16:22;6.35;;;3.88;;
39044;SDS011;52192;52.002;5.956;2022-12-18T05:18:48;5.57;;;2.63;;
39044;SDS011;52192;52.002;5.956;2022-12-18T05:21:13;4.05;;;2.25;;
39044;SDS011;52192;52.002;5.956;2022-12-18T05:23:39;6.63;;;3.13;;
39044;SDS011;52192;52.002;5.956;2022-12-18T05:26:05;4.72;;;2.42;;
39044;SDS011;52192;52.002;5.956;2022-12-18T05:28:33;4.70;;;3.25;;
39044;SDS011;52192;52.002;5.956;2022-12-18T05:31:00;5.30;;;3.33;;
39044;SDS011;52192;52.002;5.956;2022-12-18T05:33:28;3.30;;;2.88;;
39044;SDS011;52192;52.002;5.956;2022-12-18T05:35:59;3.83;;;2.28;;
39044;SDS011;52192;52.002;5.956;2022-12-18T05:38:26;4.57;;;2.33;;
39044;SDS011;52192;52.002;5.956;2022-12-18T05:40:52;3.88;;;2.78;;
39044;SDS011;52192;52.002;5.956;2022-12-18T05:43:19;5.25;;;3.28;;
39044;SDS011;52192;52.002;5.956;2022-12-18T05:45:47;5.28;;;2.70;;
39044;SDS011;52192;52.002;5.956;2022-12-18T05:48:13;5.32;;;2.85;;
39044;SDS011;52192;52.002;5.956;2022-12-18T05:50:42;5.10;;;2.83;;
39044;SDS011;52192;52.002;5.956;2022-12-18T05:53:10;4.20;;;2.58;;
39044;SDS011;52192;52.002;5.956;2022-12-18T05:55:37;4.60;;;2.42;;
39044;SDS011;52192;52.002;5.956;2022-12-18T05:58:05;5.30;;;3.08;;
39044;SDS011;52192;52.002;5.956;2022-12-18T06:00:33;5.28;;;2.55;;
39044;SDS011;52192;52.002;5.956;2022-12-18T06:03:00;6.03;;;3.75;;
39044;SDS011;52192;52.002;5.956;2022-12-18T06:05:26;3.55;;;2.72;;
39044;SDS011;52192;52.002;5.956;2022-12-18T06:07:52;7.03;;;3.15;;
39044;SDS011;52192;52.002;5.956;2022-12-18T06:10:18;4.75;;;2.65;;
39044;SDS011;52192;52.002;5.956;2022-12-18T06:12:44;5.18;;;2.70;;
39044;SDS011;52192;52.002;5.956;2022-12-18T06:15:10;4.63;;;2.60;;
39044;SDS011;52192;52.002;5.956;2022-12-18T06:17:35;7.07;;;3.17;;
39044;SDS011;52192;52.002;5.956;2022-12-18T06:20:02;4.65;;;2.17;;
39044;SDS011;52192;52.002;5.956;2022-12-18T06:22:30;7.50;;;2.65;;
39044;SDS011;52192;52.002;5.956;2022-12-18T06:24:57;3.42;;;2.30;;
39044;SDS011;52192;52.002;5.956;2022-12-18T06:27:22;9.10;;;2.88;;
39044;SDS011;52192;52.002;5.956;2022-12-18T06:29:48;3.88;;;2.25;;
39044;SDS011;52192;52.002;5.956;2022-12-18T06:32:13;5.60;;;2.70;;
39044;SDS011;52192;52.002;5.956;2022-12-18T06:34:39;7.40;;;3.42;;
39044;SDS011;52192;52.002;5.956;2022-12-18T06:37:05;4.85;;;2.35;;
39044;SDS011;52192;52.002;5.956;2022-12-18T06:39:31;4.18;;;2.75;;
39044;SDS011;52192;52.002;5.956;2022-12-18T06:41:56;4.20;;;2.65;;
39044;SDS011;52192;52.002;5.956;2022-12-18T06:44:22;5.05;;;2.65;;
39044;SDS011;52192;52.002;5.956;2022-12-18T06:46:48;4.15;;;2.53;;
39044;SDS011;52192;52.002;5.956;2022-12-18T06:49:13;5.53;;;2.08;;
39044;SDS011;52192;52.002;5.956;2022-12-18T06:51:41;5.47;;;3.22;;
39044;SDS011;52192;52.002;5.956;2022-12-18T06:54:06;8.20;;;3.63;;
39044;SDS011;52192;52.002;5.956;2022-12-18T06:56:33;4.07;;;2.35;;
39044;SDS011;52192;52.002;5.956;2022-12-18T06:58:59;4.10;;;2.80;;
39044;SDS011;52192;52.002;5.956;2022-12-18T07:01:24;4.85;;;2.70;;
39044;SDS011;52192;52.002;5.956;2022-12-18T07:03:54;5.03;;;2.65;;
39044;SDS011;52192;52.002;5.956;2022-12-18T07:06:25;5.15;;;2.78;;
39044;SDS011;52192;52.002;5.956;2022-12-18T07:08:51;7.15;;;2.75;;
39044;SDS011;52192;52.002;5.956;2022-12-18T07:11:18;4.95;;;3.13;;
39044;SDS011;52192;52.002;5.956;2022-12-18T07:13:45;3.95;;;2.30;;
39044;SDS011;52192;52.002;5.956;2022-12-18T07:16:13;1.77;;;1.67;;
39044;SDS011;52192;52.002;5.956;2022-12-18T07:18:40;5.03;;;2.95;;
39044;SDS011;52192;52.002;5.956;2022-12-18T07:21:06;5.95;;;2.63;;
39044;SDS011;52192;52.002;5.956;2022-12-18T07:23:34;5.80;;;3.00;;
39044;SDS011;52192;52.002;5.956;2022-12-18T07:26:03;3.85;;;2.60;;
39044;SDS011;52192;52.002;5.956;2022-12-18T07:28:31;5.53;;;2.50;;
39044;SDS011;52192;52.002;5.956;2022-12-18T07:30:57;4.05;;;2.10;;
39044;SDS011;52192;52.002;5.956;2022-12-18T07:33:27;4.68;;;2.45;;
39044;SDS011;52192;52.002;5.956;2022-12-18T07:35:52;4.50;;;2.55;;
39044;SDS011;52192;52.002;5.956;2022-12-18T07:38:18;5.50;;;2.53;;
39044;SDS011;52192;52.002;5.956;2022-12-18T07:40:44;6.25;;;2.92;;
39044;SDS011;52192;52.002;5.956;2022-12-18T07:43:09;3.83;;;2.67;;
39044;SDS011;52192;52.002;5.956;2022-12-18T07:45:35;3.03;;;2.58;;
39044;SDS011;52192;52.002;5.956;2022-12-18T07:48:01;10.45;;;3.22;;
39044;SDS011;52192;52.002;5.956;2022-12-18T07:50:26;5.88;;;3.33;;
39044;SDS011;52192;52.002;5.956;2022-12-18T07:52:52;3.05;;;1.98;;
39044;SDS011;52192;52.002;5.956;2022-12-18T07:55:18;5.72;;;2.88;;
39044;SDS011;52192;52.002;5.956;2022-12-18T07:57:43;3.05;;;2.45;;
39044;SDS011;52192;52.002;5.956;2022-12-18T08:00:09;5.65;;;3.22;;
39044;SDS011;52192;52.002;5.956;2022-12-18T08:02:35;6.65;;;3.03;;
39044;SDS011;52192;52.002;5.956;2022-12-18T08:05:01;4.15;;;2.92;;
39044;SDS011;52192;52.002;5.956;2022-12-18T08:07:27;2.63;;;2.08;;
39044;SDS011;52192;52.002;5.956;2022-12-18T08:09:53;4.10;;;2.42;;
39044;SDS011;52192;52.002;5.956;2022-12-18T08:12:18;5.90;;;2.35;;
39044;SDS011;52192;52.002;5.956;2022-12-18T08:14:44;8.40;;;3.75;;
39044;SDS011;52192;52.002;5.956;2022-12-18T08:17:10;5.50;;;2.83;;
39044;SDS011;52192;52.002;5.956;2022-12-18T08:19:35;5.15;;;2.58;;
39044;SDS011;52192;52.002;5.956;2022-12-18T08:22:01;5.20;;;2.83;;
39044;SDS011;52192;52.002;5.956;2022-12-18T08:24:26;4.20;;;2.83;;
39044;SDS011;52192;52.002;5.956;2022-12-18T08:26:52;2.75;;;2.50;;
39044;SDS011;52192;52.002;5.956;2022-12-18T08:29:18;4.30;;;2.15;;
39044;SDS011;52192;52.002;5.956;2022-12-18T08:31:44;4.95;;;2.53;;
39044;SDS011;52192;52.002;5.956;2022-12-18T08:34:09;6.93;;;2.55;;
39044;SDS011;52192;52.002;5.956;2022-12-18T08:36:35;5.40;;;3.47;;
39044;SDS011;52192;52.002;5.956;2022-12-18T08:39:01;4.85;;;3.17;;
39044;SDS011;52192;52.002;5.956;2022-12-18T08:41:26;4.97;;;2.25;;
39044;SDS011;52192;52.002;5.956;2022-12-18T08:43:52;8.65;;;3.30;;
39044;SDS011;52192;52.002;5.956;2022-12-18T08:46:40;3.15;;;2.38;;
39044;SDS011;52192;52.002;5.956;2022-12-18T08:49:07;3.33;;;2.20;;
39044;SDS011;52192;52.002;5.956;2022-12-18T08:51:34;6.63;;;3.33;;
39044;SDS011;52192;52.002;5.956;2022-12-18T08:54:00;6.60;;;2.95;;
39044;SDS011;52192;52.002;5.956;2022-12-18T08:56:26;4.13;;;2.47;;
39044;SDS011;52192;52.002;5.956;2022-12-18T08:58:53;5.22;;;2.42;;
39044;SDS011;52192;52.002;5.956;2022-12-18T09:01:19;3.17;;;2.53;;
39044;SDS011;52192;52.002;5.956;2022-12-18T09:03:46;5.82;;;2.63;;
39044;SDS011;52192;52.002;5.956;2022-12-18T09:06:13;6.32;;;3.17;;
39044;SDS011;52192;52.002;5.956;2022-12-18T09:08:41;4.38;;;3.08;;
39044;SDS011;52192;52.002;5.956;2022-12-18T09:11:14;4.95;;;3.28;;
39044;SDS011;52192;52.002;5.956;2022-12-18T09:13:45;4.95;;;2.90;;
39044;SDS011;52192;52.002;5.956;2022-12-18T09:16:11;5.55;;;2.40;;
39044;SDS011;52192;52.002;5.956;2022-12-18T09:18:37;6.47;;;2.15;;
39044;SDS011;52192;52.002;5.956;2022-12-18T09:21:20;4.93;;;2.60;;
39044;SDS011;52192;52.002;5.956;2022-12-18T09:23:50;3.75;;;2.20;;
39044;SDS011;52192;52.002;5.956;2022-12-18T09:26:16;3.42;;;2.90;;
39044;SDS011;52192;52.002;5.956;2022-12-18T09:28:42;2.55;;;1.73;;
39044;SDS011;52192;52.002;5.956;2022-12-18T09:31:08;3.65;;;2.75;;
39044;SDS011;52192;52.002;5.956;2022-12-18T09:33:36;3.97;;;2.13;;
39044;SDS011;52192;52.002;5.956;2022-12-18T09:36:02;7.90;;;2.55;;
39044;SDS011;52192;52.002;5.956;2022-12-18T09:38:29;4.97;;;2.40;;
39044;SDS011;52192;52.002;5.956;2022-12-18T09:41:19;3.10;;;1.90;;
39044;SDS011;52192;52.002;5.956;2022-12-18T09:44:05;3.55;;;2.53;;
39044;SDS011;52192;52.002;5.956;2022-12-18T09:58:03;6.35;;;3.20;;
39044;SDS011;52192;52.002;5.956;2022-12-18T10:00:32;3.53;;;2.70;;
39044;SDS011;52192;52.002;5.956;2022-12-18T10:03:03;3.58;;;2.47;;
39044;SDS011;52192;52.002;5.956;2022-12-18T10:05:46;3.70;;;2.13;;
39044;SDS011;52192;52.002;5.956;2022-12-18T10:14:24;4.75;;;3.05;;
39044;SDS011;52192;52.002;5.956;2022-12-18T10:17:07;2.85;;;2.35;;
39044;SDS011;52192;52.002;5.956;2022-12-18T10:19:51;5.65;;;2.83;;
39044;SDS011;52192;52.002;5.956;2022-12-18T10:22:22;4.37;;;2.17;;
39044;SDS011;52192;52.002;5.956;2022-12-18T10:27:29;4.72;;;1.92;;
39044;SDS011;52192;52.002;5.956;2022-12-18T10:29:55;2.80;;;2.38;;
39044;SDS011;52192;52.002;5.956;2022-12-18T10:32:26;8.15;;;2.95;;
39044;SDS011;52192;52.002;5.956;2022-12-18T10:34:55;3.05;;;2.28;;
39044;SDS011;52192;52.002;5.956;2022-12-18T10:37:25;6.75;;;2.72;;
39044;SDS011;52192;52.002;5.956;2022-12-18T10:40:12;7.00;;;2.90;;
39044;SDS011;52192;52.002;5.956;2022-12-18T10:42:40;4.75;;;2.97;;
39044;SDS011;52192;52.002;5.956;2022-12-18T10:45:11;5.00;;;4.30;;
39044;SDS011;52192;52.002;5.956;2022-12-18T10:47:45;5.13;;;3.50;;
39044;SDS011;52192;52.002;5.956;2022-12-18T10:50:32;4.07;;;2.90;;
39044;SDS011;52192;52.002;5.956;2022-12-18T10:53:00;3.58;;;2.90;;
39044;SDS011;52192;52.002;5.956;2022-12-18T10:55:35;5.13;;;3.03;;
39044;SDS011;52192;52.002;5.956;2022-12-18T11:03:42;4.18;;;3.03;;
39044;SDS011;52192;52.002;5.956;2022-12-18T11:06:21;5.18;;;3.00;;
39044;SDS011;52192;52.002;5.956;2022-12-18T11:11:24;8.05;;;2.95;;
39044;SDS011;52192;52.002;5.956;2022-12-18T11:16:25;6.07;;;3.60;;
39044;SDS011;52192;52.002;5.956;2022-12-18T11:18:52;7.22;;;3.63;;
39044;SDS011;52192;52.002;5.956;2022-12-18T11:21:18;5.00;;;3.40;;
39044;SDS011;52192;52.002;5.956;2022-12-18T11:23:50;4.40;;;2.95;;
39044;SDS011;52192;52.002;5.956;2022-12-18T11:26:17;6.10;;;2.47;;
39044;SDS011;52192;52.002;5.956;2022-12-18T11:28:49;7.15;;;2.92;;
39044;SDS011;52192;52.002;5.956;2022-12-18T11:31:18;6.18;;;3.65;;
39044;SDS011;52192;52.002;5.956;2022-12-18T11:36:18;4.55;;;2.90;;
39044;SDS011;52192;52.002;5.956;2022-12-18T11:38:45;5.90;;;3.00;;
39044;SDS011;52192;52.002;5.956;2022-12-18T11:41:26;4.72;;;3.03;;
39044;SDS011;52192;52.002;5.956;2022-12-18T11:44:35;4.50;;;3.55;;
39044;SDS011;52192;52.002;5.956;2022-12-18T11:47:19;4.55;;;3.33;;
39044;SDS011;52192;52.002;5.956;2022-12-18T11:49:54;4.20;;;3.50;;
39044;SDS011;52192;52.002;5.956;2022-12-18T11:52:36;3.20;;;2.90;;
39044;SDS011;52192;52.002;5.956;2022-12-18T11:55:07;4.68;;;3.50;;
39044;SDS011;52192;52.002;5.956;2022-12-18T12:07:58;3.83;;;2.93;;
39044;SDS011;52192;52.002;5.956;2022-12-18T12:21:41;5.28;;;3.50;;
39044;SDS011;52192;52.002;5.956;2022-12-18T12:26:59;5.38;;;3.22;;
39044;SDS011;52192;52.002;5.956;2022-12-18T12:40:20;4.85;;;2.65;;
39044;SDS011;52192;52.002;5.956;2022-12-18T12:42:52;6.30;;;3.35;;
39044;SDS011;52192;52.002;5.956;2022-12-18T12:49:02;6.32;;;3.33;;
39044;SDS011;52192;52.002;5.956;2022-12-18T12:51:22;4.57;;;2.95;;
39044;SDS011;52192;52.002;5.956;2022-12-18T12:53:58;6.38;;;2.90;;
39044;SDS011;52192;52.002;5.956;2022-12-18T12:56:29;5.25;;;3.25;;
39044;SDS011;52192;52.002;5.956;2022-12-18T12:59:13;4.82;;;2.80;;
39044;SDS011;52192;52.002;5.956;2022-12-18T13:01:57;5.88;;;3.60;;
39044;SDS011;52192;52.002;5.956;2022-12-18T13:07:26;8.50;;;3.83;;
39044;SDS011;52192;52.002;5.956;2022-12-18T13:15:46;5.88;;;2.90;;
39044;SDS011;52192;52.002;5.956;2022-12-18T13:18:17;3.00;;;2.50;;
39044;SDS011;52192;52.002;5.956;2022-12-18T13:23:28;5.18;;;2.92;;
39044;SDS011;52192;52.002;5.956;2022-12-18T13:30:59;5.50;;;3.97;;
39044;SDS011;52192;52.002;5.956;2022-12-18T13:36:02;6.50;;;3.58;;
39044;SDS011;52192;52.002;5.956;2022-12-18T13:40:59;4.75;;;3.30;;
39044;SDS011;52192;52.002;5.956;2022-12-18T13:43:47;4.38;;;2.90;;
39044;SDS011;52192;52.002;5.956;2022-12-18T13:49:01;3.80;;;3.03;;
39044;SDS011;52192;52.002;5.956;2022-12-18T13:51:32;6.28;;;4.10;;
39044;SDS011;52192;52.002;5.956;2022-12-18T13:54:18;5.10;;;3.35;;
39044;SDS011;52192;52.002;5.956;2022-12-18T13:57:23;6.05;;;4.00;;
39044;SDS011;52192;52.002;5.956;2022-12-18T13:59:50;4.53;;;2.88;;
39044;SDS011;52192;52.002;5.956;2022-12-18T14:02:17;7.80;;;3.40;;
39044;SDS011;52192;52.002;5.956;2022-12-18T14:04:47;7.33;;;3.67;;
39044;SDS011;52192;52.002;5.956;2022-12-18T14:07:15;6.68;;;3.80;;
39044;SDS011;52192;52.002;5.956;2022-12-18T14:09:53;7.97;;;4.07;;
39044;SDS011;52192;52.002;5.956;2022-12-18T14:12:31;5.15;;;3.42;;
39044;SDS011;52192;52.002;5.956;2022-12-18T14:17:55;6.57;;;3.88;;
39044;SDS011;52192;52.002;5.956;2022-12-18T14:20:33;7.35;;;4.03;;
39044;SDS011;52192;52.002;5.956;2022-12-18T14:22:59;7.00;;;4.25;;
39044;SDS011;52192;52.002;5.956;2022-12-18T14:25:26;8.23;;;3.60;;
39044;SDS011;52192;52.002;5.956;2022-12-18T14:28:02;4.53;;;2.90;;
39044;SDS011;52192;52.002;5.956;2022-12-18T14:33:10;4.55;;;3.00;;
39044;SDS011;52192;52.002;5.956;2022-12-18T14:35:42;6.05;;;4.10;;
39044;SDS011;52192;52.002;5.956;2022-12-18T14:38:33;4.80;;;3.40;;
39044;SDS011;52192;52.002;5.956;2022-12-18T14:41:04;4.05;;;3.33;;
39044;SDS011;52192;52.002;5.956;2022-12-18T14:43:36;4.38;;;3.78;;
39044;SDS011;52192;52.002;5.956;2022-12-18T14:46:26;8.68;;;3.72;;
39044;SDS011;52192;52.002;5.956;2022-12-18T14:49:00;2.72;;;2.20;;
39044;SDS011;52192;52.002;5.956;2022-12-18T14:51:49;8.50;;;4.22;;
39044;SDS011;52192;52.002;5.956;2022-12-18T14:54:18;6.40;;;3.08;;
39044;SDS011;52192;52.002;5.956;2022-12-18T14:56:49;13.13;;;3.83;;
39044;SDS011;52192;52.002;5.956;2022-12-18T14:59:19;5.78;;;3.70;;
39044;SDS011;52192;52.002;5.956;2022-12-18T15:01:51;5.68;;;3.58;;
39044;SDS011;52192;52.002;5.956;2022-12-18T15:04:25;5.18;;;3.25;;
39044;SDS011;52192;52.002;5.956;2022-12-18T15:07:10;4.50;;;3.35;;
39044;SDS011;52192;52.002;5.956;2022-12-18T15:10:01;7.63;;;3.97;;
39044;SDS011;52192;52.002;5.956;2022-12-18T15:18:12;7.85;;;3.25;;
39044;SDS011;52192;52.002;5.956;2022-12-18T15:20:52;3.28;;;2.90;;
39044;SDS011;52192;52.002;5.956;2022-12-18T15:23:23;4.88;;;3.90;;
39044;SDS011;52192;52.002;5.956;2022-12-18T15:26:08;6.28;;;3.78;;
39044;SDS011;52192;52.002;5.956;2022-12-18T15:33:42;7.38;;;3.92;;
39044;SDS011;52192;52.002;5.956;2022-12-18T15:36:28;10.93;;;3.92;;
39044;SDS011;52192;52.002;5.956;2022-12-18T15:38:55;9.27;;;5.05;;
39044;SDS011;52192;52.002;5.956;2022-12-18T15:41:22;5.70;;;3.30;;
39044;SDS011;52192;52.002;5.956;2022-12-18T15:43:49;8.23;;;4.95;;
39044;SDS011;52192;52.002;5.956;2022-12-18T15:46:20;6.20;;;3.50;;
39044;SDS011;52192;52.002;5.956;2022-12-18T15:48:47;7.30;;;4.72;;
39044;SDS011;52192;52.002;5.956;2022-12-18T15:51:34;5.88;;;3.78;;
39044;SDS011;52192;52.002;5.956;2022-12-18T15:54:03;6.10;;;4.68;;
39044;SDS011;52192;52.002;5.956;2022-12-18T15:56:31;11.30;;;4.60;;
39044;SDS011;52192;52.002;5.956;2022-12-18T15:59:16;7.35;;;4.00;;
39044;SDS011;52192;52.002;5.956;2022-12-18T16:01:45;6.90;;;4.70;;
39044;SDS011;52192;52.002;5.956;2022-12-18T16:04:12;8.90;;;4.28;;
39044;SDS011;52192;52.002;5.956;2022-12-18T16:06:40;8.48;;;5.28;;
39044;SDS011;52192;52.002;5.956;2022-12-18T16:09:06;6.70;;;4.03;;
39044;SDS011;52192;52.002;5.956;2022-12-18T16:11:33;6.28;;;4.60;;
39044;SDS011;52192;52.002;5.956;2022-12-18T16:14:05;10.32;;;5.53;;
39044;SDS011;52192;52.002;5.956;2022-12-18T16:17:00;7.65;;;4.03;;
39044;SDS011;52192;52.002;5.956;2022-12-18T16:19:28;5.53;;;4.38;;
39044;SDS011;52192;52.002;5.956;2022-12-18T16:21:54;10.00;;;5.03;;
39044;SDS011;52192;52.002;5.956;2022-12-18T16:24:25;10.02;;;4.45;;
39044;SDS011;52192;52.002;5.956;2022-12-18T16:26:53;9.35;;;4.70;;
39044;SDS011;52192;52.002;5.956;2022-12-18T16:29:22;5.82;;;4.25;;
39044;SDS011;52192;52.002;5.956;2022-12-18T16:31:52;10.95;;;5.53;;
39044;SDS011;52192;52.002;5.956;2022-12-18T16:36:49;6.88;;;5.35;;
39044;SDS011;52192;52.002;5.956;2022-12-18T16:39:15;8.10;;;5.93;;
39044;SDS011;52192;52.002;5.956;2022-12-18T16:41:41;8.88;;;4.30;;
39044;SDS011;52192;52.002;5.956;2022-12-18T16:44:07;15.05;;;7.32;;
39044;SDS011;52192;52.002;5.956;2022-12-18T16:46:33;14.10;;;5.50;;
39044;SDS011;52192;52.002;5.956;2022-12-18T16:48:59;8.23;;;5.63;;
39044;SDS011;52192;52.002;5.956;2022-12-18T16:51:28;8.32;;;5.10;;
39044;SDS011;52192;52.002;5.956;2022-12-18T16:53:54;5.75;;;4.40;;
39044;SDS011;52192;52.002;5.956;2022-12-18T16:56:21;7.97;;;4.40;;
39044;SDS011;52192;52.002;5.956;2022-12-18T16:58:54;8.50;;;5.43;;
39044;SDS011;52192;52.002;5.956;2022-12-18T17:01:22;6.38;;;5.38;;
39044;SDS011;52192;52.002;5.956;2022-12-18T17:03:52;10.05;;;5.90;;
39044;SDS011;52192;52.002;5.956;2022-12-18T17:06:19;9.25;;;4.95;;
39044;SDS011;52192;52.002;5.956;2022-12-18T17:08:46;10.63;;;5.57;;
39044;SDS011;52192;52.002;5.956;2022-12-18T17:11:12;10.32;;;5.70;;
39044;SDS011;52192;52.002;5.956;2022-12-18T17:13:37;9.85;;;5.10;;
39044;SDS011;52192;52.002;5.956;2022-12-18T17:16:04;8.85;;;5.95;;